Time;durP1;ratioP1;P1;durP2;ratioP2;P2;SDS_P1;SDS_P2;PMS_P1;PMS_P2;Temp;Humidity;BMP_temperature;BMP_pressure;BME280_temperature;BME280_humidity;BME280_pressure;Samples;Min_cycle;Max_cycle;Signal;HPM_P1;HPM_P2
2022/12/13 00:02:08;;;;;;;42.75;37.70;;;;;;;-2.13;100.00;94521.34;5085150;28;20028;-68
2022/12/13 00:04:33;;;;;;;42.92;37.90;;;;;;;-2.16;100.00;94506.91;5081603;28;20489;-67
2022/12/13 00:06:59;;;;;;;55.30;45.00;;;;;;;-2.14;100.00;94504.19;5086642;28;20089;-67
2022/12/13 00:09:24;;;;;;;51.15;41.78;;;;;;;-2.18;100.00;94508.75;5081711;28;20082;-67
2022/12/13 00:11:51;;;;;;;72.43;53.80;;;;;;;-2.03;100.00;94496.66;5081249;28;20028;-68
2022/12/13 00:14:16;;;;;;;58.38;45.35;;;;;;;-2.03;100.00;94501.81;5088400;28;20027;-67
2022/12/13 00:16:47;;;;;;;71.35;51.05;;;;;;;-2.05;100.00;94495.91;5083496;28;20025;-63
2022/12/13 00:19:12;;;;;;;76.05;53.63;;;;;;;-2.04;100.00;94495.00;5079276;28;20032;-55
2022/12/13 00:21:38;;;;;;;97.93;64.65;;;;;;;-2.03;100.00;94491.50;5078402;28;20101;-63
2022/12/13 00:24:06;;;;;;;70.05;50.38;;;;;;;-1.98;100.00;94483.47;5086443;28;20029;-62
2022/12/13 00:26:32;;;;;;;53.30;42.08;;;;;;;-2.05;100.00;94483.03;5078039;28;20095;-62
2022/12/13 00:29:01;;;;;;;100.95;59.80;;;;;;;-2.02;100.00;94474.25;5084992;28;20036;-62
2022/12/13 00:31:28;;;;;;;86.57;54.42;;;;;;;-2.08;100.00;94478.06;5085728;28;20039;-63
2022/12/13 00:33:53;;;;;;;73.03;49.08;;;;;;;-2.05;100.00;94477.03;5081546;28;20493;-63
2022/12/13 00:36:19;;;;;;;58.72;43.42;;;;;;;-2.09;100.00;94468.66;5078063;28;20102;-55
2022/12/13 00:38:44;;;;;;;45.67;36.55;;;;;;;-2.03;100.00;94467.44;5067295;28;20081;-67
2022/12/13 00:41:15;;;;;;;44.83;34.88;;;;;;;-2.07;100.00;94463.38;5075957;28;20044;-59
2022/12/13 00:43:41;;;;;;;46.88;40.03;;;;;;;-2.10;100.00;94469.59;5080715;28;20035;-59
2022/12/13 00:46:18;;;;;;;49.40;37.28;;;;;;;-2.11;100.00;94464.50;5075344;28;20033;-59
2022/12/13 00:48:48;;;;;;;43.20;38.05;;;;;;;-2.13;100.00;94471.53;5081126;28;20036;-59
2022/12/13 00:51:13;;;;;;;51.75;43.63;;;;;;;-2.11;100.00;94465.31;5085719;28;20107;-60
2022/12/13 00:53:39;;;;;;;45.58;37.53;;;;;;;-2.15;100.00;94461.28;5083371;28;20116;-59
2022/12/13 00:56:10;;;;;;;48.95;40.05;;;;;;;-2.17;100.00;94470.88;5079295;28;20101;-66
2022/12/13 00:58:36;;;;;;;55.67;43.30;;;;;;;-2.19;100.00;94470.97;5081636;28;20089;-64
2022/12/13 01:01:03;;;;;;;53.85;42.55;;;;;;;-2.17;100.00;94468.28;5080612;28;20121;-62
2022/12/13 01:03:28;;;;;;;68.47;47.75;;;;;;;-2.12;100.00;94466.25;5086854;28;20509;-63
2022/12/13 01:05:54;;;;;;;60.70;44.78;;;;;;;-2.14;100.00;94467.28;5076120;28;20032;-64
2022/12/13 01:08:19;;;;;;;41.63;35.88;;;;;;;-2.14;100.00;94460.34;5088669;28;20066;-62
2022/12/13 01:10:46;;;;;;;40.65;34.70;;;;;;;-2.09;100.00;94463.50;5087810;28;20428;-62
2022/12/13 01:13:13;;;;;;;39.08;32.83;;;;;;;-2.06;100.00;94462.47;5088853;28;20043;-62
2022/12/13 01:15:46;;;;;;;37.10;31.88;;;;;;;-2.02;100.00;94462.19;5097050;28;20043;-55
2022/12/13 01:18:13;;;;;;;39.15;33.88;;;;;;;-2.05;100.00;94457.22;5079596;28;20055;-56
2022/12/13 01:20:39;;;;;;;51.45;40.28;;;;;;;-2.00;100.00;94456.09;5081643;28;20101;-55
2022/12/13 01:23:05;;;;;;;55.38;41.03;;;;;;;-1.99;100.00;94448.28;5078864;28;20028;-57
2022/12/13 01:25:32;;;;;;;43.35;34.45;;;;;;;-2.06;100.00;94450.41;5087825;28;20028;-55
2022/12/13 01:27:58;;;;;;;33.80;29.70;;;;;;;-2.08;100.00;94447.09;5084475;28;20130;-55
2022/12/13 01:30:24;;;;;;;31.52;27.50;;;;;;;-2.04;100.00;94447.72;5080279;28;20643;-55
2022/12/13 01:32:49;;;;;;;29.95;26.65;;;;;;;-2.09;100.00;94442.88;5084524;28;20040;-54
2022/12/13 01:35:15;;;;;;;39.13;33.60;;;;;;;-2.10;100.00;94456.69;5082736;28;20060;-60
2022/12/13 01:37:40;;;;;;;42.08;34.83;;;;;;;-2.11;100.00;94454.19;5074899;28;20578;-57
2022/12/13 01:40:06;;;;;;;32.03;28.42;;;;;;;-2.05;100.00;94451.22;5083666;28;20487;-56
2022/12/13 01:42:31;;;;;;;32.92;29.40;;;;;;;-2.02;100.00;94446.72;5088420;28;20062;-56
2022/12/13 01:45:19;;;;;;;46.90;35.75;;;;;;;-2.03;100.00;94449.38;5086105;28;20038;-57
2022/12/13 01:47:56;;;;;;;52.13;40.83;;;;;;;-2.10;100.00;94443.78;5081064;28;20040;-55
2022/12/13 01:50:33;;;;;;;50.42;40.25;;;;;;;-2.07;100.00;94446.19;5083817;28;20107;-56
2022/12/13 01:52:59;;;;;;;48.30;39.70;;;;;;;-2.12;100.00;94440.47;5087963;28;20031;-61
2022/12/13 01:55:28;;;;;;;44.78;37.17;;;;;;;-2.07;100.00;94442.75;5083645;28;20083;-62
2022/12/13 01:57:55;;;;;;;72.82;53.00;;;;;;;-2.05;100.00;94436.59;5081500;28;20035;-55
2022/12/13 02:00:20;;;;;;;56.63;43.53;;;;;;;-2.09;100.00;94432.56;5066123;28;20397;-55
2022/12/13 02:02:47;;;;;;;36.08;32.15;;;;;;;-2.09;100.00;94429.13;5078771;28;20058;-55
2022/12/13 02:05:21;;;;;;;44.25;36.70;;;;;;;-2.12;100.00;94417.25;5082270;28;20040;-55
2022/12/13 02:07:48;;;;;;;62.30;50.80;;;;;;;-2.19;100.00;94428.88;5085791;28;20024;-56
2022/12/13 02:10:13;;;;;;;38.65;34.53;;;;;;;-2.17;100.00;94432.19;5082152;28;20428;-55
2022/12/13 02:12:40;;;;;;;41.67;35.65;;;;;;;-2.13;100.00;94423.31;5072336;28;20040;-64
2022/12/13 02:15:13;;;;;;;49.72;38.95;;;;;;;-2.10;100.00;94423.16;5087133;28;20028;-59
2022/12/13 02:18:14;;;;;;;45.88;38.15;;;;;;;-2.10;100.00;94418.00;5080308;28;20398;-68
2022/12/13 02:20:52;;;;;;;44.38;37.70;;;;;;;-2.07;100.00;94425.53;5070579;28;20047;-67
2022/12/13 02:23:20;;;;;;;45.10;37.70;;;;;;;-2.09;100.00;94427.41;5073460;28;20040;-67
2022/12/13 02:26:06;;;;;;;51.95;40.83;;;;;;;-2.13;100.00;94423.31;5077915;28;20067;-68
2022/12/13 02:28:53;;;;;;;53.15;42.05;;;;;;;-2.08;100.00;94423.06;5071871;28;20493;-67
2022/12/13 02:31:38;;;;;;;60.47;42.35;;;;;;;-2.12;100.00;94419.81;5079474;28;20077;-68
2022/12/13 02:34:12;;;;;;;52.35;42.08;;;;;;;-2.12;100.00;94417.25;5077725;28;20032;-56
2022/12/13 02:36:55;;;;;;;62.50;48.78;;;;;;;-2.11;100.00;94406.00;5076149;28;20033;-64
2022/12/13 02:39:24;;;;;;;62.17;48.22;;;;;;;-2.15;100.00;94401.97;5072227;28;20031;-64
2022/12/13 02:41:53;;;;;;;40.92;36.55;;;;;;;-2.13;100.00;94413.00;5082281;28;20130;-64
2022/12/13 02:44:26;;;;;;;62.08;55.38;;;;;;;-2.13;100.00;94405.28;5073008;28;20523;-64
2022/12/13 02:47:03;;;;;;;77.43;69.53;;;;;;;-2.12;100.00;94398.38;5074702;28;20682;-64
2022/12/13 02:49:33;;;;;;;45.20;40.30;;;;;;;-2.13;100.00;94392.38;5072268;28;20060;-64
2022/12/13 02:52:00;;;;;;;43.63;38.97;;;;;;;-2.12;100.00;94386.28;5072753;28;20101;-55
2022/12/13 02:54:25;;;;;;;45.03;40.08;;;;;;;-2.10;100.00;94392.22;5071167;28;20398;-54
2022/12/13 02:56:55;;;;;;;42.05;37.45;;;;;;;-2.08;100.00;94381.78;5071944;28;20024;-55
2022/12/13 02:59:26;;;;;;;43.72;38.22;;;;;;;-2.09;100.00;94377.56;5081555;28;20115;-55
2022/12/13 03:02:14;;;;;;;54.67;43.42;;;;;;;-2.18;100.00;94369.47;5080885;28;20036;-55
2022/12/13 03:07:50;;;;;;;40.92;33.83;;;;;;;-2.18;100.00;94373.78;5075691;28;20103;-55
2022/12/13 03:10:25;;;;;;;38.30;34.25;;;;;;;-2.17;100.00;94359.97;5076792;28;20020;-62
2022/12/13 03:16:02;;;;;;;42.53;35.75;;;;;;;-2.08;100.00;94359.41;5101205;28;20128;-60
2022/12/13 03:18:30;;;;;;;40.30;35.70;;;;;;;-2.08;100.00;94359.41;5069079;28;20083;-59
2022/12/13 03:21:00;;;;;;;42.50;37.88;;;;;;;-2.12;100.00;94362.28;5084352;28;20028;-59
2022/12/13 03:23:26;;;;;;;38.97;34.47;;;;;;;-2.14;100.00;94371.88;5079506;28;20079;-59
2022/12/13 03:26:01;;;;;;;36.85;33.00;;;;;;;-2.16;100.00;94367.63;5068888;28;20267;-59
2022/12/13 03:28:27;;;;;;;37.67;33.75;;;;;;;-2.11;100.00;94361.34;5069115;28;20036;-59
2022/12/13 03:30:52;;;;;;;37.63;33.53;;;;;;;-2.08;100.00;94364.56;5086249;28;20040;-55
2022/12/13 03:33:18;;;;;;;40.65;33.90;;;;;;;-2.08;100.00;94362.00;5078173;28;20071;-60
2022/12/13 03:35:43;;;;;;;39.17;33.85;;;;;;;-2.05;100.00;94366.94;5068488;28;20043;-59
2022/12/13 03:38:10;;;;;;;38.33;31.80;;;;;;;-2.04;100.00;94368.59;5082288;28;20512;-59
2022/12/13 03:40:35;;;;;;;40.97;35.10;;;;;;;-1.99;100.00;94359.75;5072288;28;20562;-59
2022/12/13 03:43:01;;;;;;;37.78;33.50;;;;;;;-1.97;100.00;94357.88;5074737;28;20024;-59
2022/12/13 03:45:26;;;;;;;38.08;33.97;;;;;;;-1.97;100.00;94356.16;5094218;28;20056;-59
2022/12/13 03:47:52;;;;;;;36.72;32.80;;;;;;;-1.97;100.00;94345.81;5092405;28;20030;-59
2022/12/13 03:50:18;;;;;;;38.03;34.20;;;;;;;-1.92;100.00;94340.34;5091847;28;20111;-55
2022/12/13 03:52:43;;;;;;;35.53;32.03;;;;;;;-1.90;100.00;94341.06;5092368;28;20500;-59
2022/12/13 03:55:09;;;;;;;33.70;30.10;;;;;;;-1.89;100.00;94338.41;5091672;28;20047;-60
2022/12/13 03:57:34;;;;;;;30.50;27.23;;;;;;;-1.90;100.00;94335.91;5092106;28;20047;-59
2022/12/13 04:00:00;;;;;;;29.83;26.77;;;;;;;-1.92;100.00;94332.59;5090928;28;20028;-60
2022/12/13 04:02:25;;;;;;;31.63;28.17;;;;;;;-1.94;100.00;94337.03;5091791;28;20089;-59
2022/12/13 04:04:50;;;;;;;33.15;29.70;;;;;;;-1.93;100.00;94333.53;5090727;28;20036;-59
2022/12/13 04:07:16;;;;;;;32.67;29.27;;;;;;;-1.94;100.00;94345.63;5082114;28;20485;-60
2022/12/13 04:09:41;;;;;;;37.72;33.00;;;;;;;-1.96;100.00;94332.00;5074023;28;20433;-60
2022/12/13 04:14:50;;;;;;;30.83;27.52;;;;;;;-1.95;100.00;94335.38;5095520;28;20050;-61
2022/12/13 04:17:15;;;;;;;28.52;25.45;;;;;;;-1.91;100.00;94339.41;5088310;28;20569;-62
2022/12/13 04:19:41;;;;;;;26.98;24.35;;;;;;;-1.89;100.00;94330.66;5071934;28;20480;-62
2022/12/13 04:22:06;;;;;;;25.75;23.25;;;;;;;-1.88;100.00;94336.63;5072170;28;20436;-61
2022/12/13 04:24:31;;;;;;;25.73;23.02;;;;;;;-1.92;100.00;94337.78;5071727;28;20020;-61
2022/12/13 04:26:57;;;;;;;25.30;22.83;;;;;;;-1.90;100.00;94335.91;5071551;28;20035;-61
2022/12/13 04:29:22;;;;;;;25.23;22.73;;;;;;;-1.89;100.00;94334.97;5071690;28;20064;-65
2022/12/13 04:31:48;;;;;;;29.27;25.58;;;;;;;-1.85;100.00;94330.47;5083682;28;20093;-67
2022/12/13 04:34:13;;;;;;;28.73;25.77;;;;;;;-1.79;100.00;94336.06;5072598;28;20040;-67
2022/12/13 04:36:38;;;;;;;26.52;23.83;;;;;;;-1.81;100.00;94339.66;5083130;28;20093;-67
2022/12/13 04:39:05;;;;;;;26.08;23.60;;;;;;;-1.76;100.00;94333.28;5090181;28;20032;-68
2022/12/13 04:41:37;;;;;;;27.63;24.85;;;;;;;-1.73;100.00;94322.75;5091311;28;20117;-67
2022/12/13 04:44:05;;;;;;;48.97;40.05;;;;;;;-1.62;100.00;94326.38;5090196;28;20028;-67
2022/12/13 04:46:30;;;;;;;44.90;34.97;;;;;;;-1.77;100.00;94323.03;5090820;28;20467;-67
2022/12/13 04:48:55;;;;;;;37.22;32.92;;;;;;;-1.82;100.00;94313.03;5090723;28;20073;-65
2022/12/13 04:51:21;;;;;;;33.17;29.90;;;;;;;-1.89;100.00;94317.78;5077085;28;20097;-64
2022/12/13 04:53:46;;;;;;;35.88;32.00;;;;;;;-1.82;100.00;94323.34;5088725;28;20024;-63
2022/12/13 04:56:11;;;;;;;37.88;33.85;;;;;;;-1.83;100.00;94326.03;5091254;28;20024;-63
2022/12/13 04:58:37;;;;;;;40.50;35.63;;;;;;;-1.85;100.00;94327.88;5089559;28;20027;-63
2022/12/13 05:01:09;;;;;;;33.47;30.15;;;;;;;-1.87;100.00;94325.41;5090946;28;20039;-63
2022/12/13 05:03:36;;;;;;;33.83;30.35;;;;;;;-1.90;100.00;94325.59;5077849;28;20032;-64
2022/12/13 05:06:06;;;;;;;31.70;28.58;;;;;;;-1.90;100.00;94323.84;5089304;28;20110;-63
2022/12/13 05:08:31;;;;;;;30.15;27.27;;;;;;;-1.87;100.00;94325.41;5090179;28;20032;-61
2022/12/13 05:10:57;;;;;;;35.33;30.17;;;;;;;-1.78;100.00;94322.22;5089381;28;20024;-65
2022/12/13 05:13:22;;;;;;;49.10;39.17;;;;;;;-1.83;100.00;94311.38;5090103;28;20459;-65
2022/12/13 05:15:57;;;;;;;31.77;28.55;;;;;;;-1.75;100.00;94322.03;5095457;28;20036;-65
2022/12/13 05:18:23;;;;;;;34.45;30.77;;;;;;;-1.78;100.00;94322.22;5065651;28;20509;-65
2022/12/13 05:20:50;;;;;;;37.20;33.17;;;;;;;-1.84;100.00;94316.63;5076599;28;20063;-65
2022/12/13 05:23:19;;;;;;;43.97;36.30;;;;;;;-1.81;100.00;94319.00;5084317;28;20036;-65
2022/12/13 05:25:45;;;;;;;32.42;29.13;;;;;;;-1.85;100.00;94328.72;5085101;28;20036;-61
2022/12/13 05:28:10;;;;;;;33.25;29.85;;;;;;;-1.88;100.00;94327.16;5090490;28;20028;-59
2022/12/13 05:30:40;;;;;;;39.58;34.47;;;;;;;-1.91;100.00;94331.69;5087038;28;20484;-59
2022/12/13 05:33:05;;;;;;;40.67;36.45;;;;;;;-1.82;100.00;94325.94;5087409;28;20036;-59
2022/12/13 05:35:31;;;;;;;49.45;44.22;;;;;;;-1.82;100.00;94328.53;5083474;28;20105;-59
2022/12/13 05:37:56;;;;;;;40.72;36.42;;;;;;;-1.88;100.00;94326.31;5087078;28;20028;-59
2022/12/13 05:40:23;;;;;;;103.07;74.10;;;;;;;-1.82;100.00;94333.69;5082245;28;20038;-60
2022/12/13 05:42:48;;;;;;;89.65;67.75;;;;;;;-1.84;100.00;94330.38;5086395;28;20059;-59
2022/12/13 05:45:15;;;;;;;38.25;34.17;;;;;;;-1.87;100.00;94331.38;5082389;28;20072;-68
2022/12/13 05:47:41;;;;;;;28.13;25.25;;;;;;;-1.87;100.00;94331.38;5086238;28;20032;-59
2022/12/13 05:50:06;;;;;;;32.40;29.00;;;;;;;-1.82;100.00;94328.53;5082094;28;20483;-64
2022/12/13 05:52:32;;;;;;;56.05;44.60;;;;;;;-1.77;100.00;94325.63;5089855;28;20036;-64
2022/12/13 05:54:57;;;;;;;56.35;45.90;;;;;;;-1.80;100.00;94325.81;5085686;28;20116;-64
2022/12/13 05:57:23;;;;;;;43.17;37.75;;;;;;;-1.78;100.00;94332.53;5085449;28;20115;-64
2022/12/13 05:59:48;;;;;;;57.65;50.28;;;;;;;-1.78;100.00;94339.44;5073208;28;20060;-65
2022/12/13 06:02:16;;;;;;;43.03;38.40;;;;;;;-1.86;100.00;94337.41;5081292;28;20499;-65
2022/12/13 06:04:41;;;;;;;37.72;33.10;;;;;;;-1.93;100.00;94338.69;5078387;28;20089;-61
2022/12/13 06:07:07;;;;;;;60.92;46.60;;;;;;;-1.94;100.00;94339.63;5071340;28;20483;-63
2022/12/13 06:09:32;;;;;;;49.22;38.95;;;;;;;-1.91;100.00;94347.16;5075129;28;20448;-55
2022/12/13 06:11:57;;;;;;;51.45;39.85;;;;;;;-1.96;100.00;94349.22;5079815;28;20135;-54
2022/12/13 06:14:23;;;;;;;47.45;38.47;;;;;;;-1.97;100.00;94343.25;5072687;28;20075;-54
2022/12/13 06:16:50;;;;;;;45.97;40.00;;;;;;;-1.96;100.00;94337.16;5081664;28;20089;-55
2022/12/13 06:19:15;;;;;;;58.78;44.00;;;;;;;-1.92;100.00;94337.78;5083121;28;20533;-54
2022/12/13 06:21:40;;;;;;;49.30;41.28;;;;;;;-1.91;100.00;94339.41;5085809;28;20059;-55
2022/12/13 06:24:07;;;;;;;50.95;41.90;;;;;;;-1.92;100.00;94340.34;5062540;28;20065;-64
2022/12/13 06:26:33;;;;;;;65.65;49.55;;;;;;;-1.91;100.00;94344.56;5085971;28;20078;-63
2022/12/13 06:28:58;;;;;;;46.65;37.05;;;;;;;-1.93;100.00;94333.53;5077215;28;20060;-66
2022/12/13 06:31:24;;;;;;;48.13;38.15;;;;;;;-1.93;100.00;94342.13;5079589;28;20047;-66
2022/12/13 06:33:49;;;;;;;71.18;51.95;;;;;;;-1.90;100.00;94349.66;5075250;28;20090;-65
2022/12/13 06:36:15;;;;;;;80.40;56.97;;;;;;;-1.88;100.00;94355.53;5084750;28;20044;-67
2022/12/13 06:38:40;;;;;;;50.92;40.53;;;;;;;-1.91;100.00;94349.75;5083123;28;20036;-66
2022/12/13 06:41:14;;;;;;;43.55;35.05;;;;;;;-1.91;100.00;94342.00;5076878;28;20452;-66
2022/12/13 06:43:46;;;;;;;58.92;45.03;;;;;;;-1.85;100.00;94344.19;5069445;28;20498;-63
2022/12/13 06:46:13;;;;;;;52.08;41.63;;;;;;;-1.84;100.00;94356.19;5070783;28;20055;-63
2022/12/13 06:48:41;;;;;;;32.53;29.10;;;;;;;-1.82;100.00;94349.16;5071806;28;20032;-62
2022/12/13 06:51:08;;;;;;;33.15;29.38;;;;;;;-1.76;100.00;94350.53;5070360;28;20029;-62
2022/12/13 06:53:38;;;;;;;100.50;64.72;;;;;;;-1.76;100.00;94356.50;5077927;28;20056;-64
2022/12/13 06:56:05;;;;;;;123.30;70.38;;;;;;;-1.73;100.00;94358.06;5088762;28;20028;-63
2022/12/13 06:58:32;;;;;;;73.72;50.83;;;;;;;-1.74;100.00;94359.81;5082111;28;20028;-64
2022/12/13 07:01:07;;;;;;;37.88;32.15;;;;;;;-1.78;100.00;94375.56;5076604;28;20035;-64
2022/12/13 07:03:33;;;;;;;36.40;31.02;;;;;;;-1.77;100.00;94375.50;5081383;28;20070;-60
2022/12/13 07:06:02;;;;;;;35.88;31.95;;;;;;;-1.75;100.00;94381.38;5067164;28;20068;-63
2022/12/13 07:08:27;;;;;;;45.35;34.78;;;;;;;-1.74;100.00;94377.88;5083303;28;20037;-63
2022/12/13 07:10:54;;;;;;;75.03;46.13;;;;;;;-1.73;100.00;94376.94;5080352;28;20570;-63
2022/12/13 07:13:19;;;;;;;37.28;33.25;;;;;;;-1.74;100.00;94383.03;5087087;28;20498;-62
2022/12/13 07:15:46;;;;;;;42.35;37.78;;;;;;;-1.73;100.00;94383.88;5102654;28;20100;-62
2022/12/13 07:18:11;;;;;;;42.22;36.53;;;;;;;-1.69;100.00;94382.72;5073529;28;20028;-63
2022/12/13 07:20:41;;;;;;;40.38;35.33;;;;;;;-1.69;100.00;94381.91;5085453;28;20515;-63
2022/12/13 07:23:07;;;;;;;37.53;32.58;;;;;;;-1.67;100.00;94388.63;5092976;28;20115;-64
2022/12/13 07:25:32;;;;;;;36.78;32.83;;;;;;;-1.66;100.00;94395.44;5092346;28;20115;-63
2022/12/13 07:28:00;;;;;;;36.55;30.48;;;;;;;-1.63;100.00;94410.72;5094124;28;20063;-63
2022/12/13 07:30:25;;;;;;;31.40;28.17;;;;;;;-1.58;100.00;94413.00;5092239;28;20044;-64
2022/12/13 07:32:50;;;;;;;43.20;34.70;;;;;;;-1.62;100.00;94412.38;5095597;28;20496;-63
2022/12/13 07:35:16;;;;;;;42.80;34.30;;;;;;;-1.63;100.00;94422.81;5091369;28;20518;-63
2022/12/13 07:37:42;;;;;;;47.78;35.95;;;;;;;-1.60;100.00;94420.03;5092244;28;20067;-63
2022/12/13 07:40:08;;;;;;;64.95;44.05;;;;;;;-1.56;100.00;94431.81;5091723;28;20440;-63
2022/12/13 07:42:34;;;;;;;31.63;28.02;;;;;;;-1.58;100.00;94433.66;5085601;28;20066;-64
2022/12/13 07:44:59;;;;;;;26.65;23.85;;;;;;;-1.60;100.00;94445.84;5096851;28;20430;-62
2022/12/13 07:47:30;;;;;;;36.35;31.15;;;;;;;-1.54;100.00;94452.38;5088901;28;20063;-62
2022/12/13 07:49:55;;;;;;;47.40;33.63;;;;;;;-1.49;100.00;94445.97;5083736;28;20032;-62
2022/12/13 07:52:20;;;;;;;22.33;20.08;;;;;;;-1.47;100.00;94441.53;5081469;28;20035;-62
2022/12/13 07:54:46;;;;;;;42.33;31.20;;;;;;;-1.36;100.00;94446.00;5077926;28;20028;-61
2022/12/13 07:57:12;;;;;;;52.45;43.30;;;;;;;-1.30;100.00;94443.03;5089391;28;20136;-62
2022/12/13 07:59:37;;;;;;;44.67;39.42;;;;;;;-1.34;100.00;94441.56;5080915;28;20509;-61
2022/12/13 08:02:04;;;;;;;38.70;34.45;;;;;;;-1.34;100.00;94451.88;5089736;28;20038;-66
2022/12/13 08:04:29;;;;;;;37.45;33.53;;;;;;;-1.33;100.00;94457.88;5077591;28;20044;-67
2022/12/13 08:06:55;;;;;;;33.55;30.05;;;;;;;-1.25;100.00;94460.78;5077601;28;20034;-66
2022/12/13 08:09:20;;;;;;;32.83;29.27;;;;;;;-1.27;100.00;94462.66;5075080;28;20120;-66
2022/12/13 08:11:45;;;;;;;166.82;92.13;;;;;;;-1.36;100.00;94460.66;5073479;28;20099;-66
2022/12/13 08:14:11;;;;;;;185.23;70.32;;;;;;;-1.37;100.00;94462.41;5073345;28;20033;-66
2022/12/13 08:16:36;;;;;;;45.42;40.40;;;;;;;-1.37;100.00;94469.34;5068218;28;20028;-67
2022/12/13 08:19:01;;;;;;;62.70;40.70;;;;;;;-1.34;100.00;94472.53;5072108;28;20078;-67
2022/12/13 08:21:27;;;;;;;29.83;26.17;;;;;;;-1.39;100.00;94478.94;5078402;28;20028;-63
2022/12/13 08:23:52;;;;;;;30.77;27.77;;;;;;;-1.41;100.00;94485.97;5087932;28;20409;-59
2022/12/13 08:26:17;;;;;;;33.25;29.95;;;;;;;-1.42;100.00;94482.56;5079829;28;20036;-59
2022/12/13 08:28:43;;;;;;;44.08;37.28;;;;;;;-1.38;100.00;94493.50;5072434;28;20032;-60
2022/12/13 08:31:10;;;;;;;115.10;75.35;;;;;;;-1.29;100.00;94492.91;5070999;28;20048;-60
2022/12/13 08:33:38;;;;;;;79.38;56.05;;;;;;;-1.24;100.00;94492.63;5070594;28;20048;-60
2022/12/13 08:36:11;;;;;;;41.83;37.35;;;;;;;-1.30;100.00;94493.84;5074000;28;20482;-60
2022/12/13 08:38:36;;;;;;;41.67;37.38;;;;;;;-1.21;100.00;94488.09;5071384;28;20054;-60
2022/12/13 08:41:02;;;;;;;54.28;43.97;;;;;;;-1.11;100.00;94495.22;5072650;28;20036;-68
2022/12/13 08:43:28;;;;;;;70.88;53.72;;;;;;;-1.16;100.00;94496.38;5074922;28;20094;-64
2022/12/13 08:45:53;;;;;;;46.15;37.70;;;;;;;-1.26;100.00;94497.88;5080967;28;20484;-65
2022/12/13 08:48:18;;;;;;;86.57;62.65;;;;;;;-1.29;100.00;94505.81;5083964;28;20043;-65
2022/12/13 08:50:43;;;;;;;31.50;28.02;;;;;;;-1.34;100.00;94505.31;5078784;28;20051;-65
2022/12/13 08:53:09;;;;;;;32.72;29.27;;;;;;;-1.37;100.00;94503.72;5079251;28;20048;-65
2022/12/13 08:55:35;;;;;;;41.42;34.75;;;;;;;-1.37;100.00;94502.91;5082150;28;20035;-65
2022/12/13 08:58:07;;;;;;;49.78;43.42;;;;;;;-1.32;100.00;94509.44;5088208;28;20028;-66
2022/12/13 09:00:33;;;;;;;33.25;29.20;;;;;;;-1.28;100.00;94511.84;5085043;28;20037;-59
2022/12/13 09:02:58;;;;;;;43.08;35.92;;;;;;;-1.16;100.00;94505.84;5082746;28;20107;-59
2022/12/13 09:05:24;;;;;;;44.88;40.08;;;;;;;-1.03;100.00;94505.88;5080955;28;20054;-59
2022/12/13 09:07:54;;;;;;;39.33;35.20;;;;;;;-1.04;100.00;94492.16;5087295;28;20110;-59
2022/12/13 09:10:19;;;;;;;44.47;37.05;;;;;;;-0.99;100.00;94498.75;5079591;28;20531;-59
2022/12/13 09:12:45;;;;;;;32.30;28.92;;;;;;;-0.98;100.00;94492.66;5086142;28;20029;-60
2022/12/13 09:15:10;;;;;;;29.38;26.60;;;;;;;-0.95;100.00;94500.22;5097949;28;20042;-60
2022/12/13 09:17:35;;;;;;;31.60;28.20;;;;;;;-0.91;100.00;94499.91;5081548;28;20112;-61
2022/12/13 09:20:01;;;;;;;32.17;28.88;;;;;;;-0.83;100.00;94502.00;5087433;28;20101;-59
2022/12/13 09:22:26;;;;;;;38.72;34.65;;;;;;;-0.90;100.00;94506.75;5082948;28;20042;-66
2022/12/13 09:24:52;;;;;;;41.28;36.70;;;;;;;-0.81;100.00;94507.91;5081980;28;20086;-66
2022/12/13 09:27:18;;;;;;;37.92;33.80;;;;;;;-0.92;100.00;94518.94;5071129;28;20565;-66
2022/12/13 09:29:43;;;;;;;32.85;29.38;;;;;;;-1.01;100.00;94522.94;5069100;28;20020;-66
2022/12/13 09:32:08;;;;;;;31.13;27.90;;;;;;;-1.03;100.00;94521.38;5071583;28;20085;-66
2022/12/13 09:34:34;;;;;;;32.90;29.55;;;;;;;-1.01;100.00;94535.03;5072938;28;20043;-66
2022/12/13 09:37:00;;;;;;;33.58;29.92;;;;;;;-1.02;100.00;94536.78;5071538;28;20035;-64
2022/12/13 09:39:25;;;;;;;33.75;29.83;;;;;;;-0.90;100.00;94537.75;5070034;28;20112;-59
2022/12/13 09:41:54;;;;;;;31.83;28.55;;;;;;;-0.94;100.00;94543.22;5075509;28;21342;-63
2022/12/13 09:44:23;;;;;;;30.23;26.98;;;;;;;-0.92;100.00;94549.09;5070661;28;20119;-63
2022/12/13 09:46:51;;;;;;;33.05;29.55;;;;;;;-0.90;100.00;94542.06;5081747;28;20036;-64
2022/12/13 09:49:30;;;;;;;27.75;24.75;;;;;;;-0.91;100.00;94543.84;5073104;28;20040;-64
2022/12/13 09:51:58;;;;;;;25.50;22.88;;;;;;;-0.69;100.00;94551.94;5078858;28;20426;-64
2022/12/13 09:54:25;;;;;;;31.63;28.50;;;;;;;-0.78;100.00;94555.94;5072633;28;20036;-64
2022/12/13 09:56:53;;;;;;;34.53;31.05;;;;;;;-0.82;100.00;94560.50;5070631;28;20111;-58
2022/12/13 09:59:31;;;;;;;29.20;26.20;;;;;;;-0.76;100.00;94559.28;5072380;28;20036;-60
2022/12/13 10:02:11;;;;;;;28.85;26.08;;;;;;;-0.65;100.00;94553.41;5068098;28;20036;-68
2022/12/13 10:04:36;;;;;;;24.83;22.33;;;;;;;-0.66;100.00;94559.50;5071468;28;20513;-69
2022/12/13 10:07:10;;;;;;;29.73;26.67;;;;;;;-0.62;100.00;94558.38;5087641;28;20030;-68
2022/12/13 10:09:36;;;;;;;25.25;22.77;;;;;;;-0.71;100.00;94544.31;5084131;28;20508;-68
2022/12/13 10:12:01;;;;;;;31.02;27.83;;;;;;;-0.70;100.00;94558.88;5070519;28;20068;-68
2022/12/13 10:14:38;;;;;;;32.42;29.05;;;;;;;-0.67;100.00;94550.91;5086150;28;20047;-69
2022/12/13 10:17:07;;;;;;;27.67;24.77;;;;;;;-0.63;100.00;94544.59;5069599;28;20044;-63
2022/12/13 10:19:35;;;;;;;25.58;23.10;;;;;;;-0.62;100.00;94548.03;5079027;28;20165;-66
2022/12/13 10:22:03;;;;;;;25.27;22.80;;;;;;;-0.62;100.00;94543.69;5070945;28;20090;-65
2022/12/13 10:24:45;;;;;;;29.98;25.75;;;;;;;-0.65;100.00;94533.53;5070574;28;20501;-66
2022/12/13 10:27:13;;;;;;;31.05;24.92;;;;;;;-0.63;100.00;94544.59;5082042;28;20038;-66
2022/12/13 10:29:58;;;;;;;23.52;21.23;;;;;;;-0.63;100.00;94531.69;5088213;28;20069;-65
2022/12/13 10:32:24;;;;;;;25.90;23.40;;;;;;;-0.49;100.00;94529.94;5087279;28;20119;-66
2022/12/13 10:34:49;;;;;;;21.30;19.40;;;;;;;-0.44;100.00;94527.88;5087826;28;20592;-59
2022/12/13 10:37:27;;;;;;;21.42;19.45;;;;;;;-0.40;100.00;94534.47;5085702;28;20081;-59
2022/12/13 10:39:53;;;;;;;22.40;20.20;;;;;;;-0.48;100.00;94527.25;5071770;28;20032;-60
2022/12/13 10:42:20;;;;;;;22.92;20.52;;;;;;;-0.41;100.00;94527.66;5074192;28;20413;-61
2022/12/13 10:44:48;;;;;;;23.60;21.33;;;;;;;-0.44;100.00;94523.53;5088322;28;20381;-60
2022/12/13 10:47:23;;;;;;;21.48;19.48;;;;;;;-0.44;100.00;94517.53;5087649;28;20420;-61
2022/12/13 10:49:56;;;;;;;21.60;19.70;;;;;;;-0.31;100.00;94514.94;5089985;28;20042;-60
2022/12/13 10:52:33;;;;;;;24.27;21.98;;;;;;;-0.36;100.00;94524.75;5079685;28;20075;-61
2022/12/13 10:55:05;;;;;;;28.05;25.02;;;;;;;-0.33;100.00;94515.06;5084866;28;20094;-63
2022/12/13 10:57:31;;;;;;;26.60;23.73;;;;;;;-0.33;100.00;94516.78;5085859;28;20063;-64
2022/12/13 10:59:57;;;;;;;28.67;25.67;;;;;;;-0.38;100.00;94511.13;5087841;28;20032;-65
2022/12/13 11:02:36;;;;;;;26.30;23.50;;;;;;;-0.24;100.00;94515.34;5073383;28;20098;-65
2022/12/13 11:05:25;;;;;;;30.08;26.95;;;;;;;-0.26;100.00;94514.63;5077309;28;20029;-65
2022/12/13 11:07:51;;;;;;;24.27;21.88;;;;;;;-0.34;100.00;94518.53;5072924;28;20493;-65
2022/12/13 11:10:19;;;;;;;21.98;19.60;;;;;;;-0.34;100.00;94526.28;5073618;28;20433;-65
2022/12/13 11:12:45;;;;;;;22.00;20.10;;;;;;;-0.36;100.00;94538.50;5075083;28;20048;-65
2022/12/13 11:15:20;;;;;;;23.90;21.80;;;;;;;-0.32;100.00;94531.38;5080199;28;20043;-60
2022/12/13 11:17:55;;;;;;;72.95;58.58;;;;;;;-0.26;100.00;94536.13;5078250;28;20735;-63
2022/12/13 11:20:23;;;;;;;;;;;;;;;-0.25;100.00;94529.22;5073941;28;20115;-62
2022/12/13 11:23:00;;;;;;;44.58;36.30;;;;;;;-0.20;100.00;94524.53;5074099;28;19948;-62